sensor_id;sensor_type;location;lat;lon;timestamp;pressure;altitude;pressure_sealevel;temperature;humidity
34124;BME280;13153;52.316;21.166;2023-04-02T00:03:02;99386.78;;;12.82;56.40
34124;BME280;13153;52.316;21.166;2023-04-02T00:05:41;99389.41;;;12.75;56.20
34124;BME280;13153;52.316;21.166;2023-04-02T00:08:38;99399.97;;;12.69;56.30
34124;BME280;13153;52.316;21.166;2023-04-02T00:11:07;99398.22;;;12.69;56.57
34124;BME280;13153;52.316;21.166;2023-04-02T00:13:35;99391.19;;;12.70;56.31
34124;BME280;13153;52.316;21.166;2023-04-02T00:16:07;99404.34;;;12.71;56.23
34124;BME280;13153;52.316;21.166;2023-04-02T00:18:44;99412.31;;;12.70;56.42
34124;BME280;13153;52.316;21.166;2023-04-02T00:21:28;99407.91;;;12.70;55.91
34124;BME280;13153;52.316;21.166;2023-04-02T00:24:00;99416.69;;;12.69;56.33
34124;BME280;13153;52.316;21.166;2023-04-02T00:26:29;99416.69;;;12.66;56.49
34124;BME280;13153;52.316;21.166;2023-04-02T00:29:01;99419.31;;;12.65;56.11
34124;BME280;13153;52.316;21.166;2023-04-02T00:31:29;99421.09;;;12.64;56.40
34124;BME280;13153;52.316;21.166;2023-04-02T00:33:59;99424.59;;;12.65;56.12
34124;BME280;13153;52.316;21.166;2023-04-02T00:36:30;99425.47;;;12.67;56.33
34124;BME280;13153;52.316;21.166;2023-04-02T00:39:01;99427.25;;;12.68;55.67
34124;BME280;13153;52.316;21.166;2023-04-02T00:41:30;99428.13;;;12.67;56.01
34124;BME280;13153;52.316;21.166;2023-04-02T00:44:01;99433.38;;;12.61;56.17
34124;BME280;13153;52.316;21.166;2023-04-02T00:46:38;99425.47;;;12.59;56.34
34124;BME280;13153;52.316;21.166;2023-04-02T00:49:35;99428.09;;;12.61;56.12
34124;BME280;13153;52.316;21.166;2023-04-02T00:52:11;99435.97;;;12.44;56.18
34124;BME280;13153;52.316;21.166;2023-04-02T00:54:55;99437.72;;;12.40;56.31
34124;BME280;13153;52.316;21.166;2023-04-02T00:57:25;99436.81;;;12.40;56.86
34124;BME280;13153;52.316;21.166;2023-04-02T00:59:59;99442.13;;;12.44;56.80
34124;BME280;13153;52.316;21.166;2023-04-02T01:02:30;99448.28;;;12.43;56.60
34124;BME280;13153;52.316;21.166;2023-04-02T01:08:03;99453.56;;;12.49;56.29
34124;BME280;13153;52.316;21.166;2023-04-02T01:23:44;99459.50;;;12.00;58.21
34124;BME280;13153;52.316;21.166;2023-04-02T01:31:48;99462.91;;;11.80;58.60
34124;BME280;13153;52.316;21.166;2023-04-02T01:34:19;99465.50;;;11.77;58.49
34124;BME280;13153;52.316;21.166;2023-04-02T01:37:31;99469.94;;;11.81;59.02
34124;BME280;13153;52.316;21.166;2023-04-02T01:40:28;99472.59;;;11.86;58.60
34124;BME280;13153;52.316;21.166;2023-04-02T01:43:34;99472.59;;;11.84;58.52
34124;BME280;13153;52.316;21.166;2023-04-02T01:46:28;99476.84;;;11.70;58.67
34124;BME280;13153;52.316;21.166;2023-04-02T01:48:59;99476.78;;;11.63;59.03
34124;BME280;13153;52.316;21.166;2023-04-02T01:51:32;99489.97;;;11.64;59.00
34124;BME280;13153;52.316;21.166;2023-04-02T01:54:03;99485.47;;;11.48;59.34
34124;BME280;13153;52.316;21.166;2023-04-02T01:56:29;99493.41;;;11.51;59.14
34124;BME280;13153;52.316;21.166;2023-04-02T01:58:57;99495.94;;;11.40;59.20
34124;BME280;13153;52.316;21.166;2023-04-02T02:04:11;99495.97;;;11.42;59.35
34124;BME280;13153;52.316;21.166;2023-04-02T02:06:38;99507.34;;;11.39;58.76
34124;BME280;13153;52.316;21.166;2023-04-02T02:09:06;99511.75;;;11.42;58.88
34124;BME280;13153;52.316;21.166;2023-04-02T02:11:37;99511.72;;;11.39;58.18
34124;BME280;13153;52.316;21.166;2023-04-02T02:14:24;99517.84;;;11.35;58.38
34124;BME280;13153;52.316;21.166;2023-04-02T02:16:54;99516.97;;;11.34;58.53
34124;BME280;13153;52.316;21.166;2023-04-02T02:20:04;99518.72;;;11.37;58.15
34124;BME280;13153;52.316;21.166;2023-04-02T02:22:48;99517.03;;;11.42;58.06
34124;BME280;13153;52.316;21.166;2023-04-02T02:25:21;99524.94;;;11.43;57.88
34124;BME280;13153;52.316;21.166;2023-04-02T02:30:36;99523.22;;;11.47;57.53
34124;BME280;13153;52.316;21.166;2023-04-02T02:33:41;99530.28;;;11.49;57.49
34124;BME280;13153;52.316;21.166;2023-04-02T02:36:27;99526.72;;;11.46;57.44
34124;BME280;13153;52.316;21.166;2023-04-02T02:41:49;99536.38;;;11.47;57.25
34124;BME280;13153;52.316;21.166;2023-04-02T02:44:31;99527.53;;;11.37;57.27
34124;BME280;13153;52.316;21.166;2023-04-02T02:47:04;99534.50;;;11.34;57.66
34124;BME280;13153;52.316;21.166;2023-04-02T02:49:39;99534.53;;;11.37;57.70
34124;BME280;13153;52.316;21.166;2023-04-02T02:52:35;99537.25;;;11.44;57.50
34124;BME280;13153;52.316;21.166;2023-04-02T02:55:09;99540.72;;;11.42;57.54
34124;BME280;13153;52.316;21.166;2023-04-02T02:57:54;99540.66;;;11.36;57.71
34124;BME280;13153;52.316;21.166;2023-04-02T03:00:21;99539.72;;;11.29;57.57
34124;BME280;13153;52.316;21.166;2023-04-02T03:02:51;99537.00;;;11.21;58.10
34124;BME280;13153;52.316;21.166;2023-04-02T03:05:26;99554.44;;;11.10;58.13
34124;BME280;13153;52.316;21.166;2023-04-02T03:07:56;99557.97;;;11.11;58.62
34124;BME280;13153;52.316;21.166;2023-04-02T03:10:54;99546.66;;;11.21;58.58
34124;BME280;13153;52.316;21.166;2023-04-02T03:13:31;99553.63;;;11.16;58.41
34124;BME280;13153;52.316;21.166;2023-04-02T03:16:43;99557.13;;;11.13;58.51
34124;BME280;13153;52.316;21.166;2023-04-02T03:19:42;99560.66;;;11.15;58.47
34124;BME280;13153;52.316;21.166;2023-04-02T03:22:26;99566.66;;;11.04;58.96
34124;BME280;13153;52.316;21.166;2023-04-02T03:27:30;99576.44;;;11.15;58.67
34124;BME280;13153;52.316;21.166;2023-04-02T03:30:35;99589.72;;;11.24;58.68
34124;BME280;13153;52.316;21.166;2023-04-02T03:33:20;99576.56;;;11.28;58.75
34124;BME280;13153;52.316;21.166;2023-04-02T03:38:35;99590.63;;;11.28;58.15
34124;BME280;13153;52.316;21.166;2023-04-02T03:41:20;99582.78;;;11.33;58.22
34124;BME280;13153;52.316;21.166;2023-04-02T03:43:57;99601.25;;;11.36;57.93
34124;BME280;13153;52.316;21.166;2023-04-02T03:46:30;99606.44;;;11.30;57.76
34124;BME280;13153;52.316;21.166;2023-04-02T03:49:05;99609.84;;;11.21;57.86
34124;BME280;13153;52.316;21.166;2023-04-02T03:51:44;99611.47;;;11.08;58.14
34124;BME280;13153;52.316;21.166;2023-04-02T03:54:15;99623.75;;;11.08;58.16
34124;BME280;13153;52.316;21.166;2023-04-02T03:56:43;99619.34;;;11.08;58.38
34124;BME280;13153;52.316;21.166;2023-04-02T03:59:37;99629.94;;;11.11;58.28
34124;BME280;13153;52.316;21.166;2023-04-02T04:02:14;99623.78;;;11.11;58.29
34124;BME280;13153;52.316;21.166;2023-04-02T04:04:45;99630.78;;;11.09;58.01
34124;BME280;13153;52.316;21.166;2023-04-02T04:07:35;99636.88;;;11.06;57.97
34124;BME280;13153;52.316;21.166;2023-04-02T04:10:03;99635.91;;;10.97;58.04
34124;BME280;13153;52.316;21.166;2023-04-02T04:12:38;99641.16;;;10.98;58.05
34124;BME280;13153;52.316;21.166;2023-04-02T04:15:19;99642.91;;;10.96;58.08
34124;BME280;13153;52.316;21.166;2023-04-02T04:17:59;99648.16;;;10.93;58.30
34124;BME280;13153;52.316;21.166;2023-04-02T04:23:33;99653.41;;;10.93;57.68
34124;BME280;13153;52.316;21.166;2023-04-02T04:26:28;99657.84;;;10.96;57.83
34124;BME280;13153;52.316;21.166;2023-04-02T04:29:22;99660.34;;;10.86;57.81
34124;BME280;13153;52.316;21.166;2023-04-02T04:31:51;99658.41;;;10.75;58.29
34124;BME280;13153;52.316;21.166;2023-04-02T04:34:28;99663.59;;;10.69;58.69
34124;BME280;13153;52.316;21.166;2023-04-02T04:37:05;99666.22;;;10.69;58.56
34124;BME280;13153;52.316;21.166;2023-04-02T04:39:49;99660.81;;;10.59;58.54
34124;BME280;13153;52.316;21.166;2023-04-02T04:42:24;99680.06;;;10.55;58.71
34124;BME280;13153;52.316;21.166;2023-04-02T04:47:49;99684.25;;;10.44;58.83
34124;BME280;13153;52.316;21.166;2023-04-02T04:51:38;99685.91;;;10.36;58.80
34124;BME280;13153;52.316;21.166;2023-04-02T04:53:48;99684.13;;;10.34;58.68
34124;BME280;13153;52.316;21.166;2023-04-02T04:56:19;99692.84;;;10.31;58.80
34124;BME280;13153;52.316;21.166;2023-04-02T04:59:24;99696.47;;;10.38;58.41
34124;BME280;13153;52.316;21.166;2023-04-02T05:04:41;99709.66;;;10.42;58.08
34124;BME280;13153;52.316;21.166;2023-04-02T05:07:30;99714.97;;;10.47;57.66
34124;BME280;13153;52.316;21.166;2023-04-02T05:10:10;99724.41;;;10.33;58.08
34124;BME280;13153;52.316;21.166;2023-04-02T05:12:49;99722.47;;;10.21;57.99
34124;BME280;13153;52.316;21.166;2023-04-02T05:23:58;99731.59;;;10.44;57.60
34124;BME280;13153;52.316;21.166;2023-04-02T05:26:38;99731.59;;;10.44;57.18
34124;BME280;13153;52.316;21.166;2023-04-02T05:29:15;99741.03;;;10.30;57.25
34124;BME280;13153;52.316;21.166;2023-04-02T05:32:05;99732.88;;;10.16;57.41
34124;BME280;13153;52.316;21.166;2023-04-02T05:34:37;99737.19;;;10.13;57.67
34124;BME280;13153;52.316;21.166;2023-04-02T05:37:04;99739.81;;;10.13;57.41
34124;BME280;13153;52.316;21.166;2023-04-02T05:39:31;99746.75;;;10.09;57.25
34124;BME280;13153;52.316;21.166;2023-04-02T05:42:03;99737.03;;;10.05;57.47
34124;BME280;13153;52.316;21.166;2023-04-02T05:44:33;99756.25;;;10.01;57.43
34124;BME280;13153;52.316;21.166;2023-04-02T05:47:04;99764.88;;;9.94;57.70
34124;BME280;13153;52.316;21.166;2023-04-02T05:52:31;99776.97;;;9.86;58.05
34124;BME280;13153;52.316;21.166;2023-04-02T05:55:05;99782.09;;;9.78;58.39
34124;BME280;13153;52.316;21.166;2023-04-02T05:57:38;99780.13;;;9.67;59.30
34124;BME280;13153;52.316;21.166;2023-04-02T06:00:22;99784.88;;;9.44;59.56
34124;BME280;13153;52.316;21.166;2023-04-02T06:02:59;99784.78;;;9.39;59.83
34124;BME280;13153;52.316;21.166;2023-04-02T06:05:35;99796.16;;;9.40;60.56
34124;BME280;13153;52.316;21.166;2023-04-02T06:11:21;99801.53;;;9.44;59.78
34124;BME280;13153;52.316;21.166;2023-04-02T06:13:50;99799.75;;;9.43;60.25
34124;BME280;13153;52.316;21.166;2023-04-02T06:16:16;99809.50;;;9.49;60.11
34124;BME280;13153;52.316;21.166;2023-04-02T06:18:43;99809.53;;;9.50;59.45
34124;BME280;13153;52.316;21.166;2023-04-02T06:21:14;99827.31;;;9.64;59.55
34124;BME280;13153;52.316;21.166;2023-04-02T06:24:04;99835.50;;;9.77;59.30
34124;BME280;13153;52.316;21.166;2023-04-02T06:26:37;99832.97;;;9.83;58.89
34124;BME280;13153;52.316;21.166;2023-04-02T06:29:19;99820.72;;;9.84;58.46
34124;BME280;13153;52.316;21.166;2023-04-02T06:31:54;99818.94;;;9.81;57.82
34124;BME280;13153;52.316;21.166;2023-04-02T06:34:24;99825.09;;;9.82;58.44
34124;BME280;13153;52.316;21.166;2023-04-02T06:36:59;99838.00;;;9.71;58.12
34124;BME280;13153;52.316;21.166;2023-04-02T06:39:27;99850.28;;;9.72;58.83
34124;BME280;13153;52.316;21.166;2023-04-02T06:42:12;99857.34;;;9.75;58.45
34124;BME280;13153;52.316;21.166;2023-04-02T06:44:38;99857.28;;;9.72;58.48
34124;BME280;13153;52.316;21.166;2023-04-02T06:47:14;99856.44;;;9.74;58.48
34124;BME280;13153;52.316;21.166;2023-04-02T06:50:00;99859.53;;;9.55;58.51
34124;BME280;13153;52.316;21.166;2023-04-02T06:52:45;99845.41;;;9.50;57.99
34124;BME280;13153;52.316;21.166;2023-04-02T06:55:46;99850.53;;;9.44;57.54
34124;BME280;13153;52.316;21.166;2023-04-02T06:58:18;99858.41;;;9.44;57.72
34124;BME280;13153;52.316;21.166;2023-04-02T07:00:47;99867.41;;;9.55;57.75
34124;BME280;13153;52.316;21.166;2023-04-02T07:03:28;99864.19;;;9.68;57.63
34124;BME280;13153;52.316;21.166;2023-04-02T07:05:56;99873.31;;;9.87;58.15
34124;BME280;13153;52.316;21.166;2023-04-02T07:08:22;99875.13;;;9.89;57.76
34124;BME280;13153;52.316;21.166;2023-04-02T07:10:48;99878.47;;;9.82;56.37
34124;BME280;13153;52.316;21.166;2023-04-02T07:13:18;99888.97;;;9.79;56.64
34124;BME280;13153;52.316;21.166;2023-04-02T07:15:49;99886.63;;;9.54;56.92
34124;BME280;13153;52.316;21.166;2023-04-02T07:18:31;99887.41;;;9.50;56.55
34124;BME280;13153;52.316;21.166;2023-04-02T07:20:58;99889.19;;;9.51;56.39
34124;BME280;13153;52.316;21.166;2023-04-02T07:23:24;99885.94;;;9.61;57.39
34124;BME280;13153;52.316;21.166;2023-04-02T07:25:53;99892.00;;;9.58;56.89
34124;BME280;13153;52.316;21.166;2023-04-02T07:28:20;99905.03;;;9.54;56.79
34124;BME280;13153;52.316;21.166;2023-04-02T07:30:46;99909.25;;;9.47;56.88
34124;BME280;13153;52.316;21.166;2023-04-02T07:33:19;99910.13;;;9.48;57.56
34124;BME280;13153;52.316;21.166;2023-04-02T07:35:47;99916.38;;;9.53;57.58
34124;BME280;13153;52.316;21.166;2023-04-02T07:38:13;99911.41;;;9.65;57.04
34124;BME280;13153;52.316;21.166;2023-04-02T07:40:39;99918.69;;;9.77;57.29
34124;BME280;13153;52.316;21.166;2023-04-02T07:43:05;99915.34;;;9.85;57.01
34124;BME280;13153;52.316;21.166;2023-04-02T07:45:31;99919.06;;;9.95;56.59
34124;BME280;13153;52.316;21.166;2023-04-02T07:48:06;99928.03;;;10.05;56.49
34124;BME280;13153;52.316;21.166;2023-04-02T07:50:32;99925.53;;;10.11;56.53
34124;BME280;13153;52.316;21.166;2023-04-02T07:52:59;99920.13;;;10.05;55.17
34124;BME280;13153;52.316;21.166;2023-04-02T07:55:25;99924.50;;;10.04;55.54
34124;BME280;13153;52.316;21.166;2023-04-02T07:57:55;99927.03;;;10.00;55.08
34124;BME280;13153;52.316;21.166;2023-04-02T08:00:22;99934.00;;;9.98;55.56
34124;BME280;13153;52.316;21.166;2023-04-02T08:02:49;99939.06;;;9.88;55.04
34124;BME280;13153;52.316;21.166;2023-04-02T08:05:15;99939.03;;;9.87;55.33
34124;BME280;13153;52.316;21.166;2023-04-02T08:07:42;99937.81;;;9.71;55.40
34124;BME280;13153;52.316;21.166;2023-04-02T08:10:11;99938.78;;;9.75;55.81
34124;BME280;13153;52.316;21.166;2023-04-02T08:12:37;99944.16;;;9.82;56.01
34124;BME280;13153;52.316;21.166;2023-04-02T08:15:04;99946.91;;;9.87;56.08
34124;BME280;13153;52.316;21.166;2023-04-02T08:17:31;99946.94;;;9.88;55.05
34124;BME280;13153;52.316;21.166;2023-04-02T08:19:58;99948.31;;;9.71;55.64
34124;BME280;13153;52.316;21.166;2023-04-02T08:22:29;99962.00;;;9.56;55.52
34124;BME280;13153;52.316;21.166;2023-04-02T08:24:56;99962.97;;;9.62;55.82
34124;BME280;13153;52.316;21.166;2023-04-02T08:27:25;99966.34;;;9.56;55.80
34124;BME280;13153;52.316;21.166;2023-04-02T08:29:51;99973.22;;;9.51;56.15
34124;BME280;13153;52.316;21.166;2023-04-02T08:32:17;99976.94;;;9.59;56.46
34124;BME280;13153;52.316;21.166;2023-04-02T08:34:44;99979.78;;;9.68;56.07
34124;BME280;13153;52.316;21.166;2023-04-02T08:37:13;99975.44;;;9.70;56.26
34124;BME280;13153;52.316;21.166;2023-04-02T08:39:40;99976.22;;;9.66;56.02
34124;BME280;13153;52.316;21.166;2023-04-02T08:47:30;99980.53;;;9.63;56.52
34124;BME280;13153;52.316;21.166;2023-04-02T08:50:02;99982.47;;;9.71;56.38
34124;BME280;13153;52.316;21.166;2023-04-02T08:52:36;99989.50;;;9.72;56.49
34124;BME280;13153;52.316;21.166;2023-04-02T08:55:16;99999.97;;;9.71;55.81
34124;BME280;13153;52.316;21.166;2023-04-02T09:00:52;100010.41;;;9.68;55.92
34124;BME280;13153;52.316;21.166;2023-04-02T09:03:29;100014.22;;;9.80;55.88
34124;BME280;13153;52.316;21.166;2023-04-02T09:05:58;100027.63;;;9.92;56.21
34124;BME280;13153;52.316;21.166;2023-04-02T09:08:26;100027.84;;;10.02;55.23
34124;BME280;13153;52.316;21.166;2023-04-02T09:13:28;100038.28;;;9.99;55.16
34124;BME280;13153;52.316;21.166;2023-04-02T09:16:18;100042.59;;;9.97;55.40
34124;BME280;13153;52.316;21.166;2023-04-02T09:18:50;100031.94;;;9.90;54.95
34124;BME280;13153;52.316;21.166;2023-04-02T09:21:20;100037.69;;;10.12;54.89
34124;BME280;13153;52.316;21.166;2023-04-02T09:23:53;100039.00;;;10.29;54.76
34124;BME280;13153;52.316;21.166;2023-04-02T09:26:28;100042.72;;;10.39;54.30
34124;BME280;13153;52.316;21.166;2023-04-02T09:29:30;100050.72;;;10.45;54.47
34124;BME280;13153;52.316;21.166;2023-04-02T09:34:46;100048.28;;;10.54;54.34
34124;BME280;13153;52.316;21.166;2023-04-02T09:37:17;100043.13;;;10.58;54.38
34124;BME280;13153;52.316;21.166;2023-04-02T09:39:44;100046.56;;;10.56;54.54
34124;BME280;13153;52.316;21.166;2023-04-02T09:42:34;100040.34;;;10.52;54.52
34124;BME280;13153;52.316;21.166;2023-04-02T09:45:22;100052.34;;;10.38;55.05
34124;BME280;13153;52.316;21.166;2023-04-02T09:47:50;100041.50;;;10.23;55.06
34124;BME280;13153;52.316;21.166;2023-04-02T09:50:31;100046.44;;;10.11;55.81
34124;BME280;13153;52.316;21.166;2023-04-02T09:52:59;100040.47;;;10.18;55.64
34124;BME280;13153;52.316;21.166;2023-04-02T09:55:41;100054.66;;;10.23;55.45
34124;BME280;13153;52.316;21.166;2023-04-02T09:58:15;100056.06;;;10.10;55.52
34124;BME280;13153;52.316;21.166;2023-04-02T10:00:52;100068.47;;;10.16;55.60
34124;BME280;13153;52.316;21.166;2023-04-02T10:03:26;100076.50;;;10.20;56.12
34124;BME280;13153;52.316;21.166;2023-04-02T10:06:13;100071.72;;;10.06;55.59
34124;BME280;13153;52.316;21.166;2023-04-02T10:08:43;100071.09;;;10.16;56.38
34124;BME280;13153;52.316;21.166;2023-04-02T10:11:16;100084.44;;;10.23;56.22
34124;BME280;13153;52.316;21.166;2023-04-02T10:13:58;100083.09;;;10.05;55.79
34124;BME280;13153;52.316;21.166;2023-04-02T10:16:35;100089.09;;;9.99;56.15
34124;BME280;13153;52.316;21.166;2023-04-02T10:19:22;100089.03;;;9.96;56.11
34124;BME280;13153;52.316;21.166;2023-04-02T10:21:53;100093.38;;;9.96;56.72
34124;BME280;13153;52.316;21.166;2023-04-02T10:24:19;100096.03;;;9.96;56.70
34124;BME280;13153;52.316;21.166;2023-04-02T10:33:07;100109.38;;;10.05;57.25
34124;BME280;13153;52.316;21.166;2023-04-02T10:39:12;100119.09;;;10.07;57.34
34124;BME280;13153;52.316;21.166;2023-04-02T10:47:51;100129.41;;;10.00;57.41
34124;BME280;13153;52.316;21.166;2023-04-02T10:50:58;100128.78;;;10.10;57.98
34124;BME280;13153;52.316;21.166;2023-04-02T10:56:25;100139.50;;;9.81;56.96
34124;BME280;13153;52.316;21.166;2023-04-02T10:59:25;100134.19;;;9.80;57.25
34124;BME280;13153;52.316;21.166;2023-04-02T11:01:57;100145.34;;;9.71;57.73
34124;BME280;13153;52.316;21.166;2023-04-02T11:04:43;100153.28;;;9.73;57.44
34124;BME280;13153;52.316;21.166;2023-04-02T11:07:19;100155.94;;;9.74;57.58
34124;BME280;13153;52.316;21.166;2023-04-02T11:09:52;100157.88;;;9.81;57.14
34124;BME280;13153;52.316;21.166;2023-04-02T11:14:58;100168.91;;;9.68;56.08
34124;BME280;13153;52.316;21.166;2023-04-02T11:17:25;100185.16;;;9.53;56.91
34124;BME280;13153;52.316;21.166;2023-04-02T11:19:51;100179.38;;;9.67;57.51
34124;BME280;13153;52.316;21.166;2023-04-02T11:22:23;100193.78;;;9.81;57.40
34124;BME280;13153;52.316;21.166;2023-04-02T11:24:52;100192.75;;;9.76;56.50
34124;BME280;13153;52.316;21.166;2023-04-02T11:27:27;100196.00;;;9.66;56.98
34124;BME280;13153;52.316;21.166;2023-04-02T11:37:42;100196.66;;;9.91;58.22
34124;BME280;13153;52.316;21.166;2023-04-02T11:42:48;100207.13;;;9.90;58.10
34124;BME280;13153;52.316;21.166;2023-04-02T11:50:43;100215.97;;;9.93;58.24
34124;BME280;13153;52.316;21.166;2023-04-02T12:02:23;100224.41;;;9.49;58.82
34124;BME280;13153;52.316;21.166;2023-04-02T12:05:18;100226.06;;;9.45;58.63
34124;BME280;13153;52.316;21.166;2023-04-02T12:08:27;100236.91;;;9.57;59.07
34124;BME280;13153;52.316;21.166;2023-04-02T12:11:00;100244.09;;;9.63;58.65
34124;BME280;13153;52.316;21.166;2023-04-02T12:16:12;100248.75;;;9.73;58.38
34124;BME280;13153;52.316;21.166;2023-04-02T12:18:46;100260.09;;;9.72;58.33
34124;BME280;13153;52.316;21.166;2023-04-02T12:21:21;100262.72;;;9.72;57.90
34124;BME280;13153;52.316;21.166;2023-04-02T12:23:51;100262.63;;;9.69;57.63
34124;BME280;13153;52.316;21.166;2023-04-02T12:26:36;100256.78;;;9.79;57.62
34124;BME280;13153;52.316;21.166;2023-04-02T12:29:15;100256.94;;;9.85;57.46
34124;BME280;13153;52.316;21.166;2023-04-02T12:31:46;100250.28;;;9.98;57.67
34124;BME280;13153;52.316;21.166;2023-04-02T12:34:16;100257.25;;;9.98;56.78
34124;BME280;13153;52.316;21.166;2023-04-02T12:39:24;100258.53;;;9.79;56.07
34124;BME280;13153;52.316;21.166;2023-04-02T12:41:51;100256.53;;;9.70;56.83
34124;BME280;13153;52.316;21.166;2023-04-02T12:44:21;100263.66;;;9.74;56.65
34124;BME280;13153;52.316;21.166;2023-04-02T12:46:49;100268.63;;;9.64;56.84
34124;BME280;13153;52.316;21.166;2023-04-02T12:49:38;100273.69;;;9.57;56.67
34124;BME280;13153;52.316;21.166;2023-04-02T12:52:23;100272.31;;;9.70;56.71
34124;BME280;13153;52.316;21.166;2023-04-02T12:59:52;100284.25;;;9.59;56.47
34124;BME280;13153;52.316;21.166;2023-04-02T13:02:30;100275.72;;;9.68;56.91
34124;BME280;13153;52.316;21.166;2023-04-02T13:05:00;100278.06;;;9.57;56.01
34124;BME280;13153;52.316;21.166;2023-04-02T13:07:31;100277.47;;;9.67;56.41
34124;BME280;13153;52.316;21.166;2023-04-02T13:10:01;100287.19;;;9.70;56.44
34124;BME280;13153;52.316;21.166;2023-04-02T13:12:38;100290.16;;;9.82;55.65
34124;BME280;13153;52.316;21.166;2023-04-02T13:20:40;100310.34;;;9.84;56.40
34124;BME280;13153;52.316;21.166;2023-04-02T13:23:35;100311.31;;;9.88;56.31
34124;BME280;13153;52.316;21.166;2023-04-02T13:26:21;100313.94;;;9.88;57.06
34124;BME280;13153;52.316;21.166;2023-04-02T13:31:29;100324.00;;;9.71;57.98
34124;BME280;13153;52.316;21.166;2023-04-02T13:33:57;100330.94;;;9.69;58.18
34124;BME280;13153;52.316;21.166;2023-04-02T13:36:24;100330.94;;;9.69;58.15
34124;BME280;13153;52.316;21.166;2023-04-02T13:38:50;100340.53;;;9.67;58.64
34124;BME280;13153;52.316;21.166;2023-04-02T13:41:27;100341.53;;;9.72;59.36
34124;BME280;13153;52.316;21.166;2023-04-02T13:43:59;100330.94;;;9.69;58.82
34124;BME280;13153;52.316;21.166;2023-04-02T13:46:29;100341.38;;;9.66;59.46
34124;BME280;13153;52.316;21.166;2023-04-02T13:48:57;100345.19;;;9.77;59.45
34124;BME280;13153;52.316;21.166;2023-04-02T13:51:37;100341.59;;;9.74;59.15
34124;BME280;13153;52.316;21.166;2023-04-02T13:54:14;100340.47;;;9.66;59.28
34124;BME280;13153;52.316;21.166;2023-04-02T13:56:41;100342.34;;;9.70;59.30
34124;BME280;13153;52.316;21.166;2023-04-02T13:59:07;100344.22;;;9.74;58.96
34124;BME280;13153;52.316;21.166;2023-04-02T14:01:33;100336.56;;;9.83;59.49
34124;BME280;13153;52.316;21.166;2023-04-02T14:04:00;100354.06;;;9.82;59.07
34124;BME280;13153;52.316;21.166;2023-04-02T14:06:56;100352.66;;;9.64;58.98
34124;BME280;13153;52.316;21.166;2023-04-02T14:09:45;100359.97;;;9.74;59.81
34124;BME280;13153;52.316;21.166;2023-04-02T14:24:22;100376.16;;;9.31;61.29
34124;BME280;13153;52.316;21.166;2023-04-02T14:29:46;100391.91;;;9.02;61.09
34124;BME280;13153;52.316;21.166;2023-04-02T14:32:25;100381.19;;;8.96;61.29
34124;BME280;13153;52.316;21.166;2023-04-02T14:35:26;100378.88;;;9.05;61.69
34124;BME280;13153;52.316;21.166;2023-04-02T14:38:29;100375.66;;;8.87;62.00
34124;BME280;13153;52.316;21.166;2023-04-02T14:41:03;100386.13;;;8.87;61.86
34124;BME280;13153;52.316;21.166;2023-04-02T14:46:25;100398.03;;;9.03;61.16
34124;BME280;13153;52.316;21.166;2023-04-02T14:49:23;100398.03;;;9.03;61.20
34124;BME280;13153;52.316;21.166;2023-04-02T14:51:55;100412.00;;;9.02;61.33
34124;BME280;13153;52.316;21.166;2023-04-02T14:54:30;100413.88;;;9.06;61.40
34124;BME280;13153;52.316;21.166;2023-04-02T14:57:26;100413.31;;;9.14;61.46
34124;BME280;13153;52.316;21.166;2023-04-02T15:03:07;100418.94;;;9.00;60.79
34124;BME280;13153;52.316;21.166;2023-04-02T15:05:48;100424.88;;;8.94;61.12
34124;BME280;13153;52.316;21.166;2023-04-02T15:08:32;100428.34;;;8.93;61.62
34124;BME280;13153;52.316;21.166;2023-04-02T15:11:24;100436.31;;;8.96;61.72
34124;BME280;13153;52.316;21.166;2023-04-02T15:14:10;100436.31;;;8.96;61.63
34124;BME280;13153;52.316;21.166;2023-04-02T15:16:37;100439.50;;;8.87;61.43
34124;BME280;13153;52.316;21.166;2023-04-02T15:19:12;100445.50;;;8.83;61.15
34124;BME280;13153;52.316;21.166;2023-04-02T15:28:11;100463.25;;;8.65;61.82
34124;BME280;13153;52.316;21.166;2023-04-02T15:30:44;100465.69;;;8.60;62.10
34124;BME280;13153;52.316;21.166;2023-04-02T15:42:13;100475.66;;;8.71;61.72
34124;BME280;13153;52.316;21.166;2023-04-02T15:45:01;100478.03;;;8.63;61.43
34124;BME280;13153;52.316;21.166;2023-04-02T15:48:02;100482.56;;;8.69;61.39
34124;BME280;13153;52.316;21.166;2023-04-02T15:56:38;100497.34;;;8.67;61.71
34124;BME280;13153;52.316;21.166;2023-04-02T15:59:44;100501.75;;;8.68;62.16
34124;BME280;13153;52.316;21.166;2023-04-02T16:03:10;100509.75;;;8.71;62.03
34124;BME280;13153;52.316;21.166;2023-04-02T16:11:45;100520.97;;;8.67;60.99
34124;BME280;13153;52.316;21.166;2023-04-02T16:14:30;100524.72;;;8.73;61.37
34124;BME280;13153;52.316;21.166;2023-04-02T16:17:04;100528.94;;;8.70;61.29
34124;BME280;13153;52.316;21.166;2023-04-02T16:19:45;100526.50;;;8.74;61.31
34124;BME280;13153;52.316;21.166;2023-04-02T16:22:28;100537.88;;;8.75;60.76
34124;BME280;13153;52.316;21.166;2023-04-02T16:25:14;100536.09;;;8.74;60.99
34124;BME280;13153;52.316;21.166;2023-04-02T16:36:44;100553.16;;;8.61;60.92
34124;BME280;13153;52.316;21.166;2023-04-02T16:44:55;100563.28;;;8.52;61.40
34124;BME280;13153;52.316;21.166;2023-04-02T16:50:44;100567.94;;;8.59;61.01
34124;BME280;13153;52.316;21.166;2023-04-02T16:53:21;100571.44;;;8.59;61.63
34124;BME280;13153;52.316;21.166;2023-04-02T17:02:36;100592.97;;;8.75;61.53
34124;BME280;13153;52.316;21.166;2023-04-02T17:08:37;100601.84;;;8.78;61.44
34124;BME280;13153;52.316;21.166;2023-04-02T17:11:17;100594.97;;;8.82;61.46
34124;BME280;13153;52.316;21.166;2023-04-02T17:14:17;100604.88;;;8.89;61.07